createdAt,value
2023-04-11T00:02:06.428Z,11.70
2023-04-11T00:04:39.313Z,11.60
2023-04-11T00:07:08.737Z,11.60
2023-04-11T00:09:37.384Z,11.70
2023-04-11T00:12:06.251Z,11.70
2023-04-11T00:14:34.763Z,11.70
2023-04-11T00:17:03.450Z,11.70
2023-04-11T00:19:33.524Z,11.80
2023-04-11T00:22:02.928Z,11.80
2023-04-11T00:24:31.310Z,11.80
2023-04-11T00:26:59.688Z,11.80
2023-04-11T00:29:28.101Z,11.80
2023-04-11T00:31:56.881Z,11.80
2023-04-11T00:34:25.276Z,11.80
2023-04-11T00:36:55.190Z,11.90
2023-04-11T00:39:26.584Z,11.90
2023-04-11T00:41:55.028Z,11.90
2023-04-11T00:44:25.635Z,12.00
2023-04-11T00:46:54.153Z,12.00
2023-04-11T00:49:22.499Z,12.10
2023-04-11T00:51:50.846Z,12.10
2023-04-11T00:54:20.701Z,12.10
2023-04-11T00:56:49.385Z,12.00
2023-04-11T00:59:17.717Z,12.00
2023-04-11T01:01:46.245Z,12.00
2023-04-11T01:04:14.787Z,12.00
2023-04-11T01:06:43.365Z,12.00
2023-04-11T01:09:11.891Z,12.10
2023-04-11T01:11:41.823Z,12.10
2023-04-11T01:14:10.261Z,12.10
2023-04-11T01:16:38.757Z,12.10
2023-04-11T01:19:08.284Z,12.10
2023-04-11T01:21:37.961Z,12.10
2023-04-11T01:24:08.900Z,12.10
2023-04-11T01:26:37.243Z,12.10
2023-04-11T01:29:05.732Z,12.10
2023-04-11T01:31:34.155Z,12.10
2023-04-11T01:34:03.080Z,12.10
2023-04-11T01:36:32.396Z,12.10
2023-04-11T01:39:01.549Z,12.10
2023-04-11T01:41:32.360Z,12.10
2023-04-11T01:44:00.891Z,12.10
2023-04-11T01:46:29.511Z,12.10
2023-04-11T01:49:00.084Z,12.10
2023-04-11T01:51:28.655Z,12.10
2023-04-11T01:53:57.096Z,12.10
2023-04-11T01:56:25.484Z,12.10
2023-04-11T01:58:55.363Z,12.20
2023-04-11T02:01:23.862Z,12.20
2023-04-11T02:03:52.773Z,12.10
2023-04-11T02:06:21.348Z,12.10
2023-04-11T02:08:49.757Z,12.00
2023-04-11T02:11:18.182Z,12.20
2023-04-11T02:13:46.724Z,12.00
2023-04-11T02:16:18.255Z,12.00
2023-04-11T02:18:47.318Z,12.10
2023-04-11T02:21:15.599Z,12.00
2023-04-11T02:23:43.986Z,12.00
2023-04-11T02:26:12.433Z,12.10
2023-04-11T02:28:40.838Z,12.00
2023-04-11T02:31:09.506Z,12.10
2023-04-11T02:33:39.291Z,12.10
2023-04-11T02:36:08.441Z,12.10
2023-04-11T02:38:37.629Z,12.00
2023-04-11T02:41:07.030Z,12.00
2023-04-11T02:43:35.698Z,12.00
2023-04-11T02:46:12.841Z,12.00
2023-04-11T02:48:43.023Z,12.10
2023-04-11T02:51:11.337Z,12.10
2023-04-11T02:53:39.689Z,12.10
2023-04-11T02:56:10.895Z,12.10
2023-04-11T02:58:42.190Z,12.10
2023-04-11T03:01:11.941Z,12.10
2023-04-11T03:03:40.441Z,12.10
2023-04-11T03:06:10.744Z,12.10
2023-04-11T03:08:39.383Z,12.10
2023-04-11T03:11:07.908Z,12.10
2023-04-11T03:13:37.481Z,12.10
2023-04-11T03:16:06.624Z,12.10
2023-04-11T03:18:35.047Z,12.10
2023-04-11T03:21:03.411Z,12.10
2023-04-11T03:23:33.273Z,12.20
2023-04-11T03:26:01.607Z,12.30
2023-04-11T03:28:30.135Z,12.20
2023-04-11T03:30:58.546Z,12.20
2023-04-11T03:33:26.925Z,12.20
2023-04-11T03:35:55.376Z,12.10
2023-04-11T03:38:23.804Z,12.10
2023-04-11T03:40:53.962Z,12.20
2023-04-11T03:43:22.372Z,12.10
2023-04-11T03:45:51.825Z,12.20
2023-04-11T03:48:20.567Z,12.20
2023-04-11T03:50:49.069Z,12.30
2023-04-11T03:53:17.345Z,12.20
2023-04-11T03:55:46.903Z,12.20
2023-04-11T03:58:16.865Z,12.20
2023-04-11T04:00:45.235Z,12.20
2023-04-11T04:03:14.034Z,12.20
2023-04-11T04:05:42.907Z,12.20
2023-04-11T04:08:11.275Z,12.20
2023-04-11T04:10:39.548Z,12.20
2023-04-11T04:13:07.971Z,12.10
2023-04-11T04:15:37.949Z,12.20
2023-04-11T04:18:06.390Z,12.10
2023-04-11T04:20:34.596Z,12.10
2023-04-11T04:23:04.659Z,12.10
2023-04-11T04:25:32.977Z,12.10
2023-04-11T04:28:01.217Z,12.20
2023-04-11T04:30:29.770Z,12.20
2023-04-11T04:33:00.436Z,12.20
2023-04-11T04:35:28.738Z,12.20
2023-04-11T04:37:57.144Z,12.20
2023-04-11T04:40:26.123Z,12.20
2023-04-11T04:42:58.857Z,12.20
2023-04-11T04:45:27.391Z,12.30
2023-04-11T04:47:55.781Z,12.30
2023-04-11T04:50:25.752Z,12.30
2023-04-11T04:52:54.094Z,12.40
2023-04-11T04:55:22.463Z,12.40
2023-04-11T04:57:50.811Z,12.40
2023-04-11T05:00:21.792Z,12.40
2023-04-11T05:02:55.014Z,12.40
2023-04-11T05:05:23.654Z,12.50
2023-04-11T05:07:53.630Z,12.40
2023-04-11T05:10:22.409Z,12.40
2023-04-11T05:12:50.924Z,12.40
2023-04-11T05:15:19.322Z,12.40
2023-04-11T05:17:47.690Z,12.40
2023-04-11T05:20:16.187Z,12.40
2023-04-11T05:22:44.702Z,12.50
2023-04-11T05:25:14.559Z,12.40
2023-04-11T05:27:42.836Z,12.40
2023-04-11T05:30:12.359Z,12.40
2023-04-11T05:32:40.845Z,12.40
2023-04-11T05:35:10.758Z,12.40
2023-04-11T05:37:39.366Z,12.40
2023-04-11T05:40:09.996Z,12.40
2023-04-11T05:42:39.954Z,12.30
2023-04-11T05:45:09.570Z,12.30
2023-04-11T05:47:38.049Z,12.30
2023-04-11T05:50:07.673Z,12.30
2023-04-11T05:52:36.302Z,12.30
2023-04-11T05:55:05.027Z,12.40
2023-04-11T05:57:33.754Z,12.10
2023-04-11T06:00:07.098Z,12.10
2023-04-11T06:02:35.815Z,12.10
2023-04-11T06:05:04.269Z,12.00
2023-04-11T06:07:33.740Z,11.90
2023-04-11T06:10:01.989Z,11.80
2023-04-11T06:12:30.344Z,11.70
2023-04-11T06:14:59.679Z,11.70
2023-04-11T06:17:29.592Z,11.60
2023-04-11T06:19:57.820Z,11.60
2023-04-11T06:22:26.035Z,11.50
2023-04-11T06:24:54.293Z,11.40
2023-04-11T06:27:22.505Z,11.40
2023-04-11T06:29:50.987Z,11.40
2023-04-11T06:32:19.905Z,11.40
2023-04-11T06:34:49.530Z,11.20
2023-04-11T06:37:17.735Z,11.40
2023-04-11T06:39:46.066Z,11.30
2023-04-11T06:42:14.236Z,11.30
2023-04-11T06:44:42.538Z,11.30
2023-04-11T06:47:10.823Z,11.30
2023-04-11T06:49:38.999Z,11.20
2023-04-11T06:52:08.637Z,11.20
2023-04-11T06:54:36.899Z,11.10
2023-04-11T06:57:05.222Z,11.10
2023-04-11T06:59:34.902Z,11.00
2023-04-11T07:02:03.130Z,11.00
2023-04-11T07:04:31.553Z,11.00
2023-04-11T07:06:59.770Z,11.00
2023-04-11T07:09:29.348Z,10.90
2023-04-11T07:11:57.751Z,10.90
2023-04-11T07:14:25.895Z,10.80
2023-04-11T07:16:54.029Z,10.70
2023-04-11T07:19:22.262Z,10.50
2023-04-11T07:21:50.423Z,10.50
2023-04-11T07:24:21.054Z,10.50
2023-04-11T07:26:52.013Z,10.40
2023-04-11T07:29:20.453Z,10.50
2023-04-11T07:31:49.673Z,10.50
2023-04-11T07:34:17.920Z,10.50
2023-04-11T07:36:46.068Z,10.40
2023-04-11T07:39:14.971Z,10.30
2023-04-11T07:41:43.161Z,10.20
2023-04-11T07:44:12.807Z,10.20
2023-04-11T07:46:41.042Z,10.10
2023-04-11T07:49:09.186Z,10.10
2023-04-11T07:51:37.326Z,10.10
2023-04-11T07:54:05.566Z,10.00
2023-04-11T07:56:33.760Z,10.00
2023-04-11T07:59:01.952Z,10.00
2023-04-11T08:01:34.249Z,9.90
2023-04-11T08:04:02.914Z,9.80
2023-04-11T08:06:31.631Z,9.80
2023-04-11T08:09:01.046Z,9.70
2023-04-11T08:11:29.247Z,9.80
2023-04-11T08:13:57.649Z,9.70
2023-04-11T08:16:26.064Z,9.60
2023-04-11T08:18:57.395Z,9.50
2023-04-11T08:21:25.635Z,9.40
2023-04-11T08:23:53.857Z,9.30
2023-04-11T08:26:22.116Z,9.30
2023-04-11T08:28:50.287Z,9.30
2023-04-11T08:31:18.579Z,9.20
2023-04-11T08:33:46.913Z,9.20
2023-04-11T08:36:16.598Z,9.30
2023-04-11T08:38:44.871Z,9.40
2023-04-11T08:41:13.116Z,9.50
2023-04-11T08:43:41.360Z,9.50
2023-04-11T08:46:09.920Z,9.60
2023-04-11T08:48:38.166Z,9.70
2023-04-11T08:51:06.973Z,9.70
2023-04-11T08:53:39.200Z,9.80
2023-04-11T08:56:07.899Z,9.80
2023-04-11T08:58:36.048Z,9.80
2023-04-11T09:01:29.839Z,9.90
2023-04-11T09:03:58.615Z,9.90
2023-04-11T09:06:30.765Z,9.90
2023-04-11T09:09:01.526Z,9.90
2023-04-11T09:11:29.794Z,10.00
2023-04-11T09:14:08.754Z,10.00
2023-04-11T09:16:37.566Z,10.00
2023-04-11T09:19:23.941Z,10.00
2023-04-11T09:21:52.371Z,10.10
2023-04-11T09:24:22.800Z,10.20
2023-04-11T09:26:52.100Z,10.30
2023-04-11T09:29:38.204Z,10.30
2023-04-11T09:32:06.794Z,10.40
2023-04-11T09:34:37.771Z,10.50
2023-04-11T09:37:06.495Z,10.60
2023-04-11T09:39:36.300Z,10.60
2023-04-11T09:42:25.343Z,10.60
2023-04-11T09:44:54.448Z,10.50
2023-04-11T09:47:23.087Z,10.40
2023-04-11T09:49:52.847Z,10.30
2023-04-11T09:52:21.832Z,10.10
2023-04-11T09:54:53.027Z,10.10
2023-04-11T09:57:23.875Z,10.10
2023-04-11T09:59:53.801Z,10.10
2023-04-11T10:02:22.074Z,10.00
2023-04-11T10:04:51.682Z,9.90
2023-04-11T10:07:22.091Z,9.80
2023-04-11T10:09:51.873Z,9.60
2023-04-11T10:12:32.145Z,9.50
2023-04-11T10:15:08.385Z,9.40
2023-04-11T10:17:37.628Z,9.50
2023-04-11T10:20:46.767Z,9.60
2023-04-11T10:23:16.113Z,9.80
2023-04-11T10:25:53.841Z,9.80
2023-04-11T10:28:33.022Z,9.80
2023-04-11T10:31:04.077Z,9.80
2023-04-11T10:33:33.482Z,9.70
2023-04-11T10:36:03.745Z,9.70
2023-04-11T10:38:51.597Z,9.70
2023-04-11T10:41:32.012Z,9.70
2023-04-11T10:44:15.688Z,9.70
2023-04-11T10:46:52.199Z,9.60
2023-04-11T10:49:34.183Z,9.70
2023-04-11T10:52:18.507Z,9.70
2023-04-11T10:54:47.272Z,9.80
2023-04-11T10:57:16.916Z,9.80
2023-04-11T11:00:16.660Z,9.90
2023-04-11T11:02:44.942Z,10.10
2023-04-11T11:05:21.259Z,10.20
2023-04-11T11:07:54.301Z,10.10
2023-04-11T11:10:41.338Z,10.10
2023-04-11T11:13:11.322Z,10.10
2023-04-11T11:15:39.931Z,10.10
2023-04-11T11:18:10.212Z,10.20
2023-04-11T11:20:39.005Z,10.30
2023-04-11T11:23:08.927Z,10.50
2023-04-11T11:25:37.592Z,10.60
2023-04-11T11:28:07.998Z,10.60
2023-04-11T11:30:38.490Z,10.70
2023-04-11T11:33:17.908Z,10.70
2023-04-11T11:35:52.272Z,10.60
2023-04-11T11:38:21.113Z,10.60
2023-04-11T11:40:49.850Z,10.40
2023-04-11T11:43:18.253Z,10.40
2023-04-11T11:45:48.152Z,10.50
2023-04-11T11:48:23.479Z,10.40
2023-04-11T11:50:57.717Z,10.20
2023-04-11T11:53:26.997Z,10.10
2023-04-11T11:55:56.881Z,10.00
2023-04-11T11:58:25.136Z,9.90
2023-04-11T12:00:55.270Z,10.00
2023-04-11T12:03:24.999Z,10.00
2023-04-11T12:05:58.262Z,10.10
2023-04-11T12:08:27.337Z,10.20
2023-04-11T12:10:55.496Z,10.20
2023-04-11T12:13:27.151Z,10.40
2023-04-11T12:15:57.093Z,10.40
2023-04-11T12:18:26.511Z,10.40
2023-04-11T12:20:55.222Z,10.40
2023-04-11T12:23:24.108Z,10.40
2023-04-11T12:25:52.351Z,10.50
2023-04-11T12:28:20.689Z,10.60
2023-04-11T12:30:48.838Z,10.80
2023-04-11T12:33:18.415Z,11.00
2023-04-11T12:35:46.806Z,11.10
2023-04-11T12:38:17.558Z,11.00
2023-04-11T12:40:47.088Z,10.80
2023-04-11T12:43:15.550Z,10.80
2023-04-11T12:45:43.875Z,10.80
2023-04-11T12:48:12.051Z,10.70
2023-04-11T12:50:41.739Z,10.70
2023-04-11T12:53:09.970Z,10.70
2023-04-11T12:55:38.249Z,10.60
2023-04-11T12:58:08.098Z,10.70
2023-04-11T13:00:36.449Z,10.60
2023-04-11T13:03:05.289Z,10.60
2023-04-11T13:05:33.667Z,10.60
2023-04-11T13:08:03.226Z,10.60
2023-04-11T13:10:31.506Z,10.50
2023-04-11T13:13:05.340Z,10.60
2023-04-11T13:15:40.798Z,10.70
2023-04-11T13:18:09.157Z,10.80
2023-04-11T13:20:37.462Z,10.90
2023-04-11T13:23:07.043Z,11.10
2023-04-11T13:25:35.301Z,11.10
2023-04-11T13:28:03.517Z,11.10
2023-04-11T13:30:31.810Z,11.10
2023-04-11T13:33:00.104Z,11.00
2023-04-11T13:35:28.307Z,11.00
2023-04-11T13:37:56.472Z,11.00
2023-04-11T13:40:26.088Z,11.00
2023-04-11T13:42:54.648Z,11.00
2023-04-11T13:45:23.162Z,11.00
2023-04-11T13:47:51.394Z,11.10
2023-04-11T13:50:19.822Z,11.20
2023-04-11T13:52:48.025Z,11.20
2023-04-11T13:55:16.247Z,11.10
2023-04-11T13:57:45.846Z,11.10
2023-04-11T14:00:15.268Z,11.00
2023-04-11T14:02:44.503Z,11.00
2023-04-11T14:05:13.186Z,11.00
2023-04-11T14:07:41.813Z,11.00
2023-04-11T14:10:10.846Z,11.00
2023-04-11T14:12:39.209Z,11.00
2023-04-11T14:15:10.303Z,10.90
2023-04-11T14:17:38.604Z,10.80
2023-04-11T14:20:08.878Z,10.90
2023-04-11T14:22:37.235Z,11.00
2023-04-11T14:25:06.587Z,11.10
2023-04-11T14:27:34.816Z,11.10
2023-04-11T14:30:03.011Z,11.10
2023-04-11T14:32:32.608Z,11.10
2023-04-11T14:35:02.295Z,11.30
2023-04-11T14:37:31.927Z,11.30
2023-04-11T14:40:00.222Z,11.30
2023-04-11T14:42:28.522Z,11.50
2023-04-11T14:44:56.909Z,11.50
2023-04-11T14:47:25.116Z,11.50
2023-04-11T14:49:54.704Z,11.70
2023-04-11T14:52:22.928Z,11.70
2023-04-11T14:54:51.248Z,11.70
2023-04-11T14:57:19.555Z,11.70
2023-04-11T14:59:48.533Z,11.60
2023-04-11T15:02:16.908Z,11.50
2023-04-11T15:04:45.267Z,11.60
2023-04-11T15:07:14.890Z,11.70
2023-04-11T15:09:43.596Z,11.70
2023-04-11T15:12:11.771Z,11.70
2023-04-11T15:14:39.916Z,11.70
2023-04-11T15:17:08.092Z,11.70
2023-04-11T15:19:36.380Z,11.70
2023-04-11T15:22:04.664Z,11.80
2023-04-11T15:24:34.194Z,11.80
2023-04-11T15:27:02.433Z,11.70
2023-04-11T15:29:30.739Z,11.80
2023-04-11T15:32:03.295Z,11.80
2023-04-11T15:34:31.502Z,11.90
2023-04-11T15:36:59.709Z,11.80
2023-04-11T15:39:28.039Z,11.90
2023-04-11T15:41:57.639Z,12.10
2023-04-11T15:44:25.907Z,12.20
2023-04-11T15:46:54.182Z,12.20
2023-04-11T15:49:22.466Z,12.20
2023-04-11T15:51:50.667Z,12.10
2023-04-11T15:54:18.957Z,12.10
2023-04-11T15:56:47.199Z,12.20
2023-04-11T15:59:16.881Z,12.20
2023-04-11T16:01:45.087Z,12.20
2023-04-11T16:04:13.413Z,12.20
2023-04-11T16:06:41.604Z,12.30
2023-04-11T16:09:09.761Z,12.30
2023-04-11T16:11:39.912Z,12.30
2023-04-11T16:14:08.115Z,12.30
2023-04-11T16:16:38.060Z,12.40
2023-04-11T16:19:07.370Z,12.30
2023-04-11T16:21:35.537Z,12.30
2023-04-11T16:24:03.737Z,12.30
2023-04-11T16:26:32.329Z,12.20
2023-04-11T16:29:00.503Z,12.20
2023-04-11T16:31:28.755Z,12.30
2023-04-11T16:33:59.051Z,12.20
2023-04-11T16:36:28.572Z,12.10
2023-04-11T16:38:56.832Z,12.00
2023-04-11T16:41:25.215Z,12.00
2023-04-11T16:43:53.538Z,11.90
2023-04-11T16:46:21.798Z,11.90
2023-04-11T16:48:50.295Z,11.90
2023-04-11T16:51:21.411Z,11.90
2023-04-11T16:53:50.434Z,11.90
2023-04-11T16:56:19.074Z,11.90
2023-04-11T16:58:47.823Z,11.80
2023-04-11T17:01:16.357Z,11.80
2023-04-11T17:03:45.662Z,11.80
2023-04-11T17:06:14.857Z,11.80
2023-04-11T17:08:45.520Z,11.80
2023-04-11T17:11:13.743Z,11.80
2023-04-11T17:13:45.213Z,11.80
2023-04-11T17:16:13.712Z,11.80
2023-04-11T17:18:42.120Z,11.70
2023-04-11T17:21:10.687Z,11.70
2023-04-11T17:23:42.596Z,11.60
2023-04-11T17:26:13.298Z,11.50
2023-04-11T17:28:42.384Z,11.50
2023-04-11T17:31:14.148Z,11.50
2023-04-11T17:33:42.499Z,11.40
2023-04-11T17:36:12.401Z,11.40
2023-04-11T17:38:42.189Z,11.20
2023-04-11T17:41:14.926Z,11.10
2023-04-11T17:43:44.320Z,11.00
2023-04-11T17:46:12.968Z,10.80
2023-04-11T17:48:42.102Z,10.80
2023-04-11T17:51:10.393Z,10.80
2023-04-11T17:53:38.567Z,10.80
2023-04-11T17:56:07.815Z,10.70
2023-04-11T17:58:40.161Z,10.70
2023-04-11T18:01:12.160Z,10.60
2023-04-11T18:03:41.236Z,10.60
2023-04-11T18:06:09.983Z,10.50
2023-04-11T18:08:50.328Z,10.50
2023-04-11T18:11:20.928Z,10.50
2023-04-11T18:13:50.688Z,10.50
2023-04-11T18:16:19.427Z,10.50
2023-04-11T18:18:48.138Z,10.50
2023-04-11T18:21:17.135Z,10.40
2023-04-11T18:23:45.352Z,10.40
2023-04-11T18:26:13.574Z,10.40
2023-04-11T18:28:41.774Z,10.40
2023-04-11T18:31:11.951Z,10.40
2023-04-11T18:33:59.721Z,10.30
2023-04-11T18:36:28.401Z,10.30
2023-04-11T18:38:56.915Z,10.30
2023-04-11T18:41:26.196Z,10.20
2023-04-11T18:43:54.428Z,10.10
2023-04-11T18:46:24.100Z,10.10
2023-04-11T18:48:52.349Z,10.10
2023-04-11T18:51:21.274Z,10.10
2023-04-11T18:53:49.562Z,10.10
2023-04-11T18:56:17.845Z,10.10
2023-04-11T18:58:48.750Z,10.00
2023-04-11T19:01:19.459Z,10.00
2023-04-11T19:03:49.339Z,9.90
2023-04-11T19:06:17.685Z,9.90
2023-04-11T19:08:46.461Z,9.80
2023-04-11T19:11:14.751Z,9.80
2023-04-11T19:13:43.004Z,9.80
2023-04-11T19:16:11.393Z,9.70
2023-04-11T19:18:39.661Z,9.70
2023-04-11T19:21:09.379Z,9.70
2023-04-11T19:23:37.614Z,9.70
2023-04-11T19:26:06.302Z,9.70
2023-04-11T19:28:34.582Z,9.70
2023-04-11T19:31:02.895Z,9.70
2023-04-11T19:33:31.201Z,9.70
2023-04-11T19:35:59.495Z,9.70
2023-04-11T19:38:29.401Z,9.60
2023-04-11T19:40:57.666Z,9.70
2023-04-11T19:43:26.193Z,9.50
2023-04-11T19:45:54.509Z,9.70
2023-04-11T19:48:23.214Z,9.60
2023-04-11T19:50:53.016Z,9.80
2023-04-11T19:53:21.462Z,9.60
2023-04-11T19:55:54.284Z,9.50
2023-04-11T19:58:23.996Z,9.40
2023-04-11T20:00:53.140Z,9.40
2023-04-11T20:03:21.634Z,9.40
2023-04-11T20:05:50.254Z,9.40
2023-04-11T20:08:18.997Z,9.30
2023-04-11T20:10:47.316Z,9.20
2023-04-11T20:13:18.262Z,9.20
2023-04-11T20:15:46.790Z,9.20
2023-04-11T20:18:16.153Z,9.20
2023-04-11T20:20:45.590Z,9.30
2023-04-11T20:23:15.634Z,9.30
2023-04-11T20:25:44.560Z,9.20
2023-04-11T20:28:13.057Z,9.20
2023-04-11T20:30:42.882Z,9.20
2023-04-11T20:33:11.244Z,9.30
2023-04-11T20:35:39.883Z,9.30
2023-04-11T20:38:08.367Z,9.30
2023-04-11T20:40:37.166Z,9.30
2023-04-11T20:43:05.616Z,9.40
2023-04-11T20:45:34.092Z,9.40
2023-04-11T20:48:06.492Z,9.40
2023-04-11T20:50:34.908Z,9.40
2023-04-11T20:53:03.377Z,9.40
2023-04-11T20:55:33.405Z,9.40
2023-04-11T20:58:01.719Z,9.30
2023-04-11T21:00:30.347Z,9.30
2023-04-11T21:02:58.810Z,9.20
2023-04-11T21:05:28.960Z,9.10
2023-04-11T21:07:58.446Z,9.10
2023-04-11T21:10:26.830Z,9.10
2023-04-11T21:12:55.235Z,9.00
2023-04-11T21:15:23.725Z,9.00
2023-04-11T21:17:52.527Z,9.00
2023-04-11T21:20:22.336Z,9.10
2023-04-11T21:22:54.193Z,9.10
2023-04-11T21:25:22.734Z,9.00
2023-04-11T21:27:51.134Z,9.00
2023-04-11T21:30:19.659Z,9.00
2023-04-11T21:32:48.254Z,8.90
2023-04-11T21:35:16.727Z,8.90
2023-04-11T21:37:46.530Z,9.00
2023-04-11T21:40:18.482Z,9.00
2023-04-11T21:42:46.995Z,9.10
2023-04-11T21:45:15.673Z,9.10
2023-04-11T21:47:44.136Z,9.00
2023-04-11T21:50:13.061Z,8.90
2023-04-11T21:52:41.408Z,8.80
2023-04-11T21:55:11.614Z,8.80
2023-04-11T21:57:41.514Z,8.70
2023-04-11T22:00:12.700Z,8.70
2023-04-11T22:02:41.854Z,8.60
2023-04-11T22:05:11.109Z,8.60
2023-04-11T22:07:39.688Z,8.60
2023-04-11T22:10:22.515Z,8.60
2023-04-11T22:12:54.570Z,8.60
2023-04-11T22:15:24.493Z,8.70
2023-04-11T22:17:56.564Z,8.70
2023-04-11T22:20:25.496Z,8.70
2023-04-11T22:22:53.751Z,8.60
2023-04-11T22:25:22.730Z,8.60
2023-04-11T22:27:54.590Z,8.60
2023-04-11T22:30:24.433Z,8.60
2023-04-11T22:32:54.490Z,8.70
2023-04-11T22:35:23.506Z,8.70
2023-04-11T22:37:53.747Z,8.60
2023-04-11T22:40:23.386Z,8.60
2023-04-11T22:42:54.116Z,8.60
2023-04-11T22:45:24.071Z,8.60
2023-04-11T22:47:57.010Z,8.60
2023-04-11T22:50:25.507Z,8.50
2023-04-11T22:52:54.874Z,8.50
2023-04-11T22:55:24.841Z,8.50
2023-04-11T22:57:54.625Z,8.40
2023-04-11T23:00:24.089Z,8.40
2023-04-11T23:02:52.635Z,8.30
2023-04-11T23:05:21.411Z,8.30
2023-04-11T23:07:49.963Z,8.30
2023-04-11T23:10:19.182Z,8.20
2023-04-11T23:12:49.406Z,8.10
2023-04-11T23:15:20.305Z,8.10
2023-04-11T23:17:49.057Z,8.10
2023-04-11T23:20:17.778Z,8.10
2023-04-11T23:22:46.157Z,8.10
2023-04-11T23:25:15.194Z,8.10
2023-04-11T23:27:44.622Z,8.10
2023-04-11T23:30:15.084Z,8.10
2023-04-11T23:32:44.892Z,8.10
2023-04-11T23:35:13.143Z,8.10
2023-04-11T23:37:41.417Z,8.00
2023-04-11T23:40:14.164Z,7.90
2023-04-11T23:42:43.133Z,7.80
2023-04-11T23:45:14.446Z,7.80
2023-04-11T23:47:44.606Z,7.80
2023-04-11T23:50:13.866Z,7.80
2023-04-11T23:52:43.004Z,7.80
2023-04-11T23:55:12.552Z,7.80
2023-04-11T23:57:41.241Z,7.90
